createdAt,value
2022-10-23T00:00:57.613Z,98519.09
2022-10-23T00:02:02.619Z,98525.78
2022-10-23T00:03:06.137Z,98519.84
2022-10-23T00:04:13.738Z,98521.13
2022-10-23T00:05:16.373Z,98532.13
2022-10-23T00:06:19.889Z,98525.72
2022-10-23T00:07:22.550Z,98525.72
2022-10-23T00:08:25.384Z,98532.13
2022-10-23T00:09:33.254Z,98528.06
2022-10-23T00:10:36.460Z,98529.37
2022-10-23T00:11:39.729Z,98534.28
2022-10-23T00:12:42.667Z,98532.66
2022-10-23T00:13:46.814Z,98528.47
2022-10-23T00:14:49.700Z,98543.00
2022-10-23T00:16:59.978Z,98534.34
2022-10-23T00:18:03.423Z,98545.78
2022-10-23T00:19:06.892Z,98543.91
2022-10-23T00:20:10.453Z,98546.69
2022-10-23T00:21:15.493Z,98550.75
2022-10-23T00:22:18.265Z,98554.03
2022-10-23T00:23:20.849Z,98554.03
2022-10-23T00:24:23.367Z,98549.12
2022-10-23T00:25:26.093Z,98553.19
2022-10-23T00:26:32.532Z,98557.38
2022-10-23T00:27:35.539Z,98554.47
2022-10-23T00:28:38.732Z,98552.72
2022-10-23T00:29:41.251Z,98548.41
2022-10-23T00:30:44.012Z,98556.50
2022-10-23T00:31:46.692Z,98553.50
2022-10-23T00:32:49.332Z,98553.50
2022-10-23T00:33:53.063Z,98560.75
2022-10-23T00:34:55.737Z,98557.81
2022-10-23T00:35:58.572Z,98558.69
2022-10-23T00:37:01.257Z,98555.34
2022-10-23T00:38:04.011Z,98554.47
2022-10-23T00:39:06.770Z,98557.69
2022-10-23T00:40:09.931Z,98559.28
2022-10-23T00:41:20.609Z,98560.84
2022-10-23T00:42:24.694Z,98560.56
2022-10-23T00:43:29.607Z,98571.81
2022-10-23T00:44:32.174Z,98564.69
2022-10-23T00:45:38.615Z,98569.16
2022-10-23T00:46:46.251Z,98566.84
2022-10-23T00:47:49.411Z,98570.00
2022-10-23T00:48:52.178Z,98565.78
2022-10-23T00:49:54.809Z,98568.75
2022-10-23T00:50:57.893Z,98571.06
2022-10-23T00:52:05.174Z,98576.09
2022-10-23T00:53:10.369Z,98574.66
2022-10-23T00:54:24.866Z,98574.56
2022-10-23T00:55:28.809Z,98578.75
2022-10-23T00:56:33.927Z,98585.38
2022-10-23T00:57:41.694Z,98582.31
2022-10-23T00:58:44.492Z,98584.44
2022-10-23T00:59:47.172Z,98588.75
2022-10-23T01:02:13.356Z,98579.06
2022-10-23T01:03:18.117Z,98578.13
2022-10-23T01:04:21.754Z,98579.53
2022-10-23T01:05:32.011Z,98577.75
2022-10-23T01:06:51.058Z,98583.50
2022-10-23T01:08:10.654Z,98588.69
2022-10-23T01:09:20.531Z,98591.44
2022-10-23T01:10:34.413Z,98600.75
2022-10-23T01:11:47.048Z,98604.03
2022-10-23T01:13:13.014Z,98601.13
2022-10-23T01:14:23.973Z,98600.53
2022-10-23T01:15:33.974Z,98604.03
2022-10-23T01:16:48.138Z,98601.84
2022-10-23T01:18:06.432Z,98599.25
2022-10-23T01:19:20.715Z,98599.00
2022-10-23T01:20:38.716Z,98602.31
2022-10-23T01:21:49.714Z,98598.84
2022-10-23T01:22:55.405Z,98605.94
2022-10-23T01:24:19.978Z,98600.47
2022-10-23T01:25:41.101Z,98607.06
2022-10-23T01:26:55.861Z,98599.47
2022-10-23T01:28:05.083Z,98598.19
2022-10-23T01:29:16.296Z,98597.13
2022-10-23T01:30:19.049Z,98594.97
2022-10-23T01:31:56.705Z,98594.78
2022-10-23T01:33:06.055Z,98593.19
2022-10-23T01:34:32.354Z,98599.41
2022-10-23T01:35:50.852Z,98593.66
2022-10-23T01:36:54.855Z,98596.16
2022-10-23T01:38:13.397Z,98595.91
2022-10-23T01:39:22.517Z,98598.31
2022-10-23T01:40:34.412Z,98601.75
2022-10-23T01:41:45.333Z,98597.00
2022-10-23T01:42:55.188Z,98594.53
2022-10-23T01:44:19.227Z,98592.38
2022-10-23T01:45:28.605Z,98588.19
2022-10-23T01:46:35.641Z,98598.28
2022-10-23T01:47:39.732Z,98594.78
2022-10-23T01:48:55.548Z,98593.19
2022-10-23T01:49:59.632Z,98590.13
2022-10-23T01:51:06.300Z,98589.97
2022-10-23T01:52:13.737Z,98586.50
2022-10-23T01:53:17.923Z,98593.81
2022-10-23T01:54:24.407Z,98582.69
2022-10-23T01:55:27.206Z,98594.97
2022-10-23T01:56:34.044Z,98592.53
2022-10-23T01:57:40.121Z,98595.47
2022-10-23T01:58:47.619Z,98592.72
2022-10-23T01:59:56.263Z,98589.63
2022-10-23T02:01:03.943Z,98586.75
2022-10-23T02:02:07.645Z,98581.06
2022-10-23T02:03:12.564Z,98577.19
2022-10-23T02:04:22.138Z,98581.25
2022-10-23T02:05:27.836Z,98575.75
2022-10-23T02:06:30.732Z,98585.44
2022-10-23T02:07:34.636Z,98575.13
2022-10-23T02:08:37.541Z,98578.75
2022-10-23T02:09:40.511Z,98580.69
2022-10-23T02:11:09.420Z,98579.66
2022-10-23T02:12:46.651Z,98581.44
2022-10-23T02:14:14.932Z,98575.31
2022-10-23T02:15:36.291Z,98582.91
2022-10-23T02:16:52.973Z,98590.16
2022-10-23T02:18:10.534Z,98583.00
2022-10-23T02:19:23.497Z,98576.69
2022-10-23T02:20:46.853Z,98579.44
2022-10-23T02:22:10.576Z,98584.50
2022-10-23T02:23:45.690Z,98579.81
2022-10-23T02:25:04.737Z,98583.53
2022-10-23T02:26:17.251Z,98579.19
2022-10-23T02:27:31.216Z,98581.84
2022-10-23T02:28:46.346Z,98583.75
2022-10-23T02:29:54.017Z,98574.25
2022-10-23T02:31:00.010Z,98583.03
2022-10-23T02:32:02.846Z,98578.13
2022-10-23T02:33:06.619Z,98583.66
2022-10-23T02:34:09.453Z,98579.66
2022-10-23T02:35:12.691Z,98582.22
2022-10-23T02:36:19.734Z,98579.66
2022-10-23T02:37:22.899Z,98586.62
2022-10-23T02:38:42.978Z,98590.91
2022-10-23T02:39:45.929Z,98583.56
2022-10-23T02:40:48.796Z,98586.97
2022-10-23T02:42:05.822Z,98585.03
2022-10-23T02:43:16.217Z,98597.50
2022-10-23T02:44:24.718Z,98599.75
2022-10-23T02:45:32.463Z,98597.78
2022-10-23T02:47:08.054Z,98598.69
2022-10-23T02:48:19.892Z,98596.91
2022-10-23T02:49:45.197Z,98594.38
2022-10-23T02:51:13.173Z,98605.13
2022-10-23T02:52:28.515Z,98604.22
2022-10-23T02:53:54.541Z,98604.94
2022-10-23T02:54:59.954Z,98614.28
2022-10-23T02:56:28.150Z,98610.84
2022-10-23T02:57:43.754Z,98609.75
2022-10-23T02:59:31.317Z,98607.72
2022-10-23T03:00:37.888Z,98614.00
2022-10-23T03:02:04.256Z,98609.41
2022-10-23T03:03:16.154Z,98617.62
2022-10-23T03:04:21.482Z,98617.62
2022-10-23T03:05:30.873Z,98615.44
2022-10-23T03:06:33.993Z,98604.44
2022-10-23T03:07:37.314Z,98612.66
2022-10-23T03:08:45.574Z,98619.41
2022-10-23T03:09:48.350Z,98622.72
2022-10-23T03:10:51.648Z,98613.78
2022-10-23T03:11:54.404Z,98620.50
2022-10-23T03:12:57.227Z,98621.56
2022-10-23T03:14:00.044Z,98629.06
2022-10-23T03:15:02.990Z,98626.12
2022-10-23T03:16:05.972Z,98636.59
2022-10-23T03:17:10.095Z,98636.59
2022-10-23T03:18:12.842Z,98643.91
2022-10-23T03:19:15.615Z,98639.16
2022-10-23T03:20:18.633Z,98640.44
2022-10-23T03:21:21.575Z,98641.91
2022-10-23T03:22:24.187Z,98646.66
2022-10-23T03:23:26.947Z,98647.38
2022-10-23T03:24:29.557Z,98643.84
2022-10-23T03:25:32.328Z,98647.66
2022-10-23T03:26:35.029Z,98644.56
2022-10-23T03:27:37.693Z,98648.75
2022-10-23T03:28:40.354Z,98643.25
2022-10-23T03:29:43.213Z,98648.00
2022-10-23T03:30:46.036Z,98646.72
2022-10-23T03:31:48.691Z,98645.81
2022-10-23T03:32:51.626Z,98649.84
2022-10-23T03:33:54.302Z,98647.31
2022-10-23T03:34:57.098Z,98647.31
2022-10-23T03:35:59.742Z,98645.31
2022-10-23T03:37:02.433Z,98652.66
2022-10-23T03:38:05.012Z,98646.03
2022-10-23T03:39:07.606Z,98647.66
2022-10-23T03:40:10.815Z,98650.25
2022-10-23T03:41:13.725Z,98642.06
2022-10-23T03:42:17.008Z,98648.84
2022-10-23T03:43:19.789Z,98645.03
2022-10-23T03:44:22.656Z,98638.97
2022-10-23T03:45:25.456Z,98646.88
2022-10-23T03:46:28.367Z,98649.25
2022-10-23T03:47:32.393Z,98651.28
2022-10-23T03:48:38.325Z,98646.75
2022-10-23T03:49:40.933Z,98646.00
2022-10-23T03:50:43.801Z,98646.00
2022-10-23T03:51:52.412Z,98642.16
2022-10-23T03:52:55.058Z,98645.81
2022-10-23T03:53:57.757Z,98645.06
2022-10-23T03:55:00.343Z,98640.69
2022-10-23T03:56:03.113Z,98635.78
2022-10-23T03:57:05.732Z,98644.56
2022-10-23T03:58:08.392Z,98642.00
2022-10-23T03:59:11.004Z,98641.78
2022-10-23T04:00:13.957Z,98652.00
2022-10-23T04:01:16.798Z,98646.53
2022-10-23T04:02:19.665Z,98646.69
2022-10-23T04:03:22.328Z,98645.06
2022-10-23T04:04:25.591Z,98654.59
2022-10-23T04:05:28.368Z,98650.91
2022-10-23T04:06:30.932Z,98651.84
2022-10-23T04:07:33.753Z,98649.47
2022-10-23T04:08:36.614Z,98652.44
2022-10-23T04:09:39.259Z,98650.03
2022-10-23T04:10:41.896Z,98653.50
2022-10-23T04:11:44.624Z,98647.62
2022-10-23T04:12:47.260Z,98653.81
2022-10-23T04:13:49.955Z,98649.78
2022-10-23T04:14:52.545Z,98644.13
2022-10-23T04:15:55.247Z,98641.03
2022-10-23T04:16:58.129Z,98638.66
2022-10-23T04:18:00.838Z,98634.78
2022-10-23T04:19:03.524Z,98643.94
2022-10-23T04:20:06.579Z,98647.25
2022-10-23T04:21:09.811Z,98648.75
2022-10-23T04:22:12.388Z,98649.12
2022-10-23T04:23:15.634Z,98651.16
2022-10-23T04:24:18.204Z,98641.63
2022-10-23T04:25:21.178Z,98640.91
2022-10-23T04:26:23.858Z,98638.75
2022-10-23T04:27:26.527Z,98638.38
2022-10-23T04:28:29.411Z,98638.19
2022-10-23T04:29:32.730Z,98637.66
2022-10-23T04:30:35.516Z,98634.75
2022-10-23T04:31:38.165Z,98634.75
2022-10-23T04:32:40.831Z,98633.84
2022-10-23T04:33:43.525Z,98636.22
2022-10-23T04:34:46.164Z,98637.84
2022-10-23T04:35:48.806Z,98626.91
2022-10-23T04:36:51.406Z,98628.34
2022-10-23T04:37:54.258Z,98627.63
2022-10-23T04:38:56.851Z,98629.22
2022-10-23T04:39:59.586Z,98625.41
2022-10-23T04:41:02.264Z,98628.50
2022-10-23T04:42:04.938Z,98624.47
2022-10-23T04:43:07.787Z,98629.22
2022-10-23T04:44:10.510Z,98630.88
2022-10-23T04:45:13.171Z,98632.47
2022-10-23T04:46:16.181Z,98633.94
2022-10-23T04:47:18.859Z,98643.94
2022-10-23T04:48:25.594Z,98635.00
2022-10-23T04:49:31.271Z,98641.78
2022-10-23T04:50:33.906Z,98637.97
2022-10-23T04:51:38.317Z,98638.88
2022-10-23T04:52:41.075Z,98642.72
2022-10-23T04:53:44.227Z,98647.62
2022-10-23T04:54:47.227Z,98646.56
2022-10-23T04:55:54.772Z,98648.41
2022-10-23T04:56:57.606Z,98647.13
2022-10-23T04:58:00.299Z,98646.19
2022-10-23T04:59:02.954Z,98647.97
2022-10-23T05:00:09.300Z,98650.16
2022-10-23T05:01:12.033Z,98644.84
2022-10-23T05:02:14.740Z,98644.50
2022-10-23T05:03:18.927Z,98648.91
2022-10-23T05:04:21.627Z,98646.19
2022-10-23T05:05:24.500Z,98646.91
2022-10-23T05:06:27.226Z,98648.38
2022-10-23T05:07:29.922Z,98644.50
2022-10-23T05:08:32.964Z,98655.25
2022-10-23T05:09:36.197Z,98649.63
2022-10-23T05:10:39.601Z,98653.66
2022-10-23T05:11:42.313Z,98656.38
2022-10-23T05:12:44.989Z,98651.78
2022-10-23T05:13:47.768Z,98658.00
2022-10-23T05:14:50.403Z,98656.53
2022-10-23T05:15:53.784Z,98655.25
2022-10-23T05:17:02.678Z,98655.81
2022-10-23T05:18:21.120Z,98660.56
2022-10-23T05:19:28.212Z,98655.59
2022-10-23T05:20:35.965Z,98653.75
2022-10-23T05:21:40.128Z,98653.22
2022-10-23T05:22:44.339Z,98652.47
2022-10-23T05:23:50.679Z,98647.72
2022-10-23T05:24:58.730Z,98647.16
2022-10-23T05:26:03.454Z,98656.28
2022-10-23T05:27:09.541Z,98653.03
2022-10-23T05:28:12.137Z,98656.31
2022-10-23T05:29:14.807Z,98653.75
2022-10-23T05:30:17.463Z,98661.09
2022-10-23T05:31:24.733Z,98659.94
2022-10-23T05:32:31.460Z,98655.94
2022-10-23T05:33:36.396Z,98662.31
2022-10-23T05:34:40.336Z,98660.50
2022-10-23T05:35:45.219Z,98668.16
2022-10-23T05:36:48.453Z,98673.84
2022-10-23T05:37:53.795Z,98673.44
2022-10-23T05:38:57.508Z,98674.19
2022-10-23T05:40:00.292Z,98676.59
2022-10-23T05:41:03.480Z,98673.13
2022-10-23T05:42:06.108Z,98681.34
2022-10-23T05:43:08.767Z,98685.38
2022-10-23T05:44:11.805Z,98681.34
2022-10-23T05:45:14.513Z,98688.84
2022-10-23T05:46:17.143Z,98688.84
2022-10-23T05:47:20.159Z,98687.03
2022-10-23T05:48:34.204Z,98689.59
2022-10-23T05:49:37.537Z,98691.59
2022-10-23T05:50:46.622Z,98686.69
2022-10-23T05:51:49.290Z,98684.09
2022-10-23T05:52:52.012Z,98681.72
2022-10-23T05:53:55.258Z,98673.84
2022-10-23T05:54:57.896Z,98678.75
2022-10-23T05:56:05.713Z,98666.50
2022-10-23T05:57:08.398Z,98672.16
2022-10-23T05:58:11.056Z,98672.34
2022-10-23T05:59:13.769Z,98675.97
2022-10-23T06:00:16.633Z,98677.59
2022-10-23T06:01:19.384Z,98678.47
2022-10-23T06:02:22.281Z,98679.78
2022-10-23T06:03:24.993Z,98672.63
2022-10-23T06:04:27.733Z,98680.06
2022-10-23T06:05:30.441Z,98682.81
2022-10-23T06:06:33.065Z,98679.91
2022-10-23T06:07:36.125Z,98683.94
2022-10-23T06:08:38.822Z,98686.84
2022-10-23T06:09:41.478Z,98684.44
2022-10-23T06:10:44.185Z,98687.34
2022-10-23T06:11:47.294Z,98694.44
2022-10-23T06:12:49.904Z,98688.97
2022-10-23T06:15:03.437Z,98680.91
2022-10-23T06:16:26.321Z,98690.59
2022-10-23T06:17:29.574Z,98691.88
2022-10-23T06:18:32.861Z,98681.97
2022-10-23T06:19:35.477Z,98692.38
2022-10-23T06:20:39.293Z,98688.19
2022-10-23T06:21:41.881Z,98688.03
2022-10-23T06:22:44.785Z,98694.94
2022-10-23T06:23:48.049Z,98691.50
2022-10-23T06:24:50.608Z,98695.13
2022-10-23T06:25:57.759Z,98698.03
2022-10-23T06:27:00.321Z,98696.34
2022-10-23T06:28:02.891Z,98692.50
2022-10-23T06:29:05.561Z,98698.88
2022-10-23T06:30:08.871Z,98707.13
2022-10-23T06:31:14.351Z,98700.00
2022-10-23T06:32:17.108Z,98706.94
2022-10-23T06:33:20.062Z,98702.16
2022-10-23T06:34:22.587Z,98708.38
2022-10-23T06:35:25.112Z,98714.03
2022-10-23T06:36:27.989Z,98715.84
2022-10-23T06:37:30.796Z,98706.88
2022-10-23T06:38:37.195Z,98722.06
2022-10-23T06:39:40.674Z,98715.28
2022-10-23T06:40:43.325Z,98722.53
2022-10-23T06:41:46.144Z,98718.66
2022-10-23T06:42:48.805Z,98728.91
2022-10-23T06:43:52.079Z,98718.13
2022-10-23T06:44:54.672Z,98733.28
2022-10-23T06:47:14.470Z,98731.62
2022-10-23T06:48:17.369Z,98724.41
2022-10-23T06:49:20.027Z,98726.78
2022-10-23T06:50:22.667Z,98725.66
2022-10-23T06:51:29.691Z,98728.00
2022-10-23T06:52:46.467Z,98728.50
2022-10-23T06:53:50.037Z,98721.50
2022-10-23T06:54:52.704Z,98727.47
2022-10-23T06:56:00.808Z,98734.75
2022-10-23T06:57:03.564Z,98731.03
2022-10-23T06:58:10.865Z,98736.69
2022-10-23T06:59:14.434Z,98733.56
2022-10-23T07:00:17.088Z,98738.63
2022-10-23T07:01:19.949Z,98736.97
2022-10-23T07:02:22.790Z,98735.59
2022-10-23T07:03:25.417Z,98741.00
2022-10-23T07:04:28.174Z,98740.91
2022-10-23T07:05:30.789Z,98748.34
2022-10-23T07:06:33.503Z,98740.00
2022-10-23T07:07:36.115Z,98744.69
2022-10-23T07:08:39.025Z,98744.44
2022-10-23T07:09:41.780Z,98745.63
2022-10-23T07:10:44.586Z,98745.22
2022-10-23T07:11:48.715Z,98746.28
2022-10-23T07:12:51.246Z,98738.50
2022-10-23T07:13:54.753Z,98750.84
2022-10-23T07:14:57.315Z,98746.94
2022-10-23T07:15:59.978Z,98744.13
2022-10-23T07:17:04.098Z,98755.41
2022-10-23T07:18:07.115Z,98761.81
2022-10-23T07:19:09.770Z,98761.53
2022-10-23T07:20:12.477Z,98763.03
2022-10-23T07:21:16.662Z,98758.81
2022-10-23T07:22:19.240Z,98764.22
2022-10-23T07:23:22.239Z,98773.19
2022-10-23T07:24:24.962Z,98763.66
2022-10-23T07:25:31.656Z,98766.44
2022-10-23T07:26:34.956Z,98766.59
2022-10-23T07:27:38.650Z,98766.59
2022-10-23T07:28:44.795Z,98773.53
2022-10-23T07:29:50.624Z,98766.31
2022-10-23T07:31:00.297Z,98770.25
2022-10-23T07:32:04.622Z,98773.16
2022-10-23T07:33:08.278Z,98763.88
2022-10-23T07:34:11.317Z,98764.59
2022-10-23T07:36:19.118Z,98763.03
2022-10-23T07:37:21.774Z,98756.38
2022-10-23T07:38:24.572Z,98766.41
2022-10-23T07:39:27.293Z,98755.84
2022-10-23T07:40:29.958Z,98760.91
2022-10-23T07:41:32.643Z,98758.06
2022-10-23T07:42:35.610Z,98759.94
2022-10-23T07:43:38.416Z,98753.84
2022-10-23T07:44:44.808Z,98759.66
2022-10-23T07:45:48.971Z,98750.09
2022-10-23T07:46:51.801Z,98757.94
2022-10-23T07:47:54.537Z,98752.72
2022-10-23T07:48:57.707Z,98754.91
2022-10-23T07:50:00.395Z,98759.25
2022-10-23T07:51:08.678Z,98758.22
2022-10-23T07:52:11.498Z,98764.03
2022-10-23T07:53:32.087Z,98764.19
2022-10-23T07:54:34.763Z,98761.72
2022-10-23T07:55:37.352Z,98755.66
2022-10-23T07:56:40.556Z,98760.41
2022-10-23T07:57:43.131Z,98758.09
2022-10-23T07:58:46.092Z,98756.50
2022-10-23T07:59:48.700Z,98750.53
2022-10-23T08:00:59.478Z,98753.00
2022-10-23T08:02:02.196Z,98749.09
2022-10-23T08:03:04.779Z,98746.03
2022-10-23T08:04:07.457Z,98753.88
2022-10-23T08:05:10.062Z,98745.16
2022-10-23T08:06:13.010Z,98742.97
2022-10-23T08:07:15.804Z,98746.88
2022-10-23T08:08:18.344Z,98744.41
2022-10-23T08:09:21.094Z,98742.69
2022-10-23T08:10:23.774Z,98749.63
2022-10-23T08:11:28.292Z,98736.28
2022-10-23T08:12:30.866Z,98741.47
2022-10-23T08:13:33.872Z,98725.81
2022-10-23T08:14:36.527Z,98731.47
2022-10-23T08:15:39.337Z,98732.31
2022-10-23T08:16:42.013Z,98734.16
2022-10-23T08:17:44.915Z,98737.34
2022-10-23T08:18:49.800Z,98735.72
2022-10-23T08:19:52.637Z,98737.31
2022-10-23T08:21:01.699Z,98734.94
2022-10-23T08:22:04.668Z,98736.81
2022-10-23T08:23:07.922Z,98733.03
2022-10-23T08:24:14.996Z,98733.16
2022-10-23T08:25:19.891Z,98737.75
2022-10-23T08:26:29.800Z,98733.22
2022-10-23T08:27:32.476Z,98737.72
2022-10-23T08:28:35.101Z,98734.91
2022-10-23T08:29:37.838Z,98738.31
2022-10-23T08:30:40.530Z,98733.19
2022-10-23T08:31:43.087Z,98740.56
2022-10-23T08:32:45.804Z,98743.00
2022-10-23T08:34:56.832Z,98729.56
2022-10-23T08:35:59.571Z,98731.72
2022-10-23T08:37:02.176Z,98733.16
2022-10-23T08:38:05.801Z,98732.09
2022-10-23T08:39:08.727Z,98732.62
2022-10-23T08:40:17.348Z,98737.38
2022-10-23T08:41:31.547Z,98737.19
2022-10-23T08:42:39.950Z,98741.91
2022-10-23T08:43:48.278Z,98743.37
2022-10-23T08:45:02.859Z,98738.59
2022-10-23T08:46:13.324Z,98740.78
2022-10-23T08:47:23.429Z,98738.41
2022-10-23T08:48:33.701Z,98734.78
2022-10-23T08:49:57.241Z,98737.34
2022-10-23T08:51:25.137Z,98737.72
2022-10-23T08:52:39.294Z,98735.41
2022-10-23T08:53:53.299Z,98734.81
2022-10-23T08:55:05.671Z,98730.94
2022-10-23T08:56:31.351Z,98736.41
2022-10-23T08:57:43.739Z,98731.19
2022-10-23T08:59:08.268Z,98737.44
2022-10-23T09:00:17.088Z,98721.06
2022-10-23T09:01:40.753Z,98729.97
2022-10-23T09:02:47.290Z,98731.75
2022-10-23T09:03:49.839Z,98725.59
2022-10-23T09:04:55.316Z,98728.00
2022-10-23T09:06:09.652Z,98726.09
2022-10-23T09:07:34.287Z,98729.09
2022-10-23T09:08:59.989Z,98731.22
2022-10-23T09:10:41.734Z,98735.28
2022-10-23T09:12:04.661Z,98729.13
2022-10-23T09:13:25.933Z,98735.66
2022-10-23T09:14:50.059Z,98737.56
2022-10-23T09:16:16.024Z,98730.63
2022-10-23T09:17:25.942Z,98740.00
2022-10-23T09:18:28.526Z,98735.06
2022-10-23T09:19:32.219Z,98740.81
2022-10-23T09:20:39.679Z,98742.16
2022-10-23T09:21:44.835Z,98743.22
2022-10-23T09:22:50.433Z,98746.81
2022-10-23T09:23:53.172Z,98745.59
2022-10-23T09:24:55.774Z,98737.47
2022-10-23T09:26:02.497Z,98744.81
2022-10-23T09:28:28.097Z,98748.22
2022-10-23T09:29:36.200Z,98749.16
2022-10-23T09:30:41.887Z,98749.00
2022-10-23T09:31:59.418Z,98764.31
2022-10-23T09:33:21.977Z,98759.78
2022-10-23T09:34:28.025Z,98756.41
2022-10-23T09:35:31.292Z,98762.38
2022-10-23T09:36:34.117Z,98758.69
2022-10-23T09:37:48.703Z,98753.31
2022-10-23T09:38:53.582Z,98758.69
2022-10-23T09:40:36.212Z,98750.75
2022-10-23T09:41:40.370Z,98749.53
2022-10-23T09:42:57.607Z,98753.97
2022-10-23T09:44:25.097Z,98764.44
2022-10-23T09:45:34.048Z,98754.28
2022-10-23T09:46:52.642Z,98761.19
2022-10-23T09:48:17.657Z,98754.91
2022-10-23T09:49:32.196Z,98755.75
2022-10-23T09:50:34.936Z,98758.31
2022-10-23T09:51:42.117Z,98760.94
2022-10-23T09:52:44.775Z,98758.63
2022-10-23T09:53:52.489Z,98760.91
2022-10-23T09:54:59.317Z,98752.16
2022-10-23T09:56:07.986Z,98764.88
2022-10-23T09:57:29.263Z,98756.97
2022-10-23T09:58:36.144Z,98754.59
2022-10-23T09:59:38.797Z,98754.81
2022-10-23T10:00:49.192Z,98757.72
2022-10-23T10:01:56.577Z,98744.69
2022-10-23T10:03:00.459Z,98750.03
2022-10-23T10:04:03.181Z,98746.13
2022-10-23T10:05:34.470Z,98745.09
2022-10-23T10:06:37.191Z,98741.41
2022-10-23T10:07:42.201Z,98746.06
2022-10-23T10:08:50.481Z,98737.91
2022-10-23T10:09:56.673Z,98741.31
2022-10-23T10:11:07.811Z,98735.78
2022-10-23T10:12:27.334Z,98732.56
2022-10-23T10:13:32.858Z,98736.59
2022-10-23T10:14:44.058Z,98728.94
2022-10-23T10:15:55.729Z,98724.03
2022-10-23T10:17:04.796Z,98727.22
2022-10-23T10:18:13.349Z,98721.37
2022-10-23T10:19:46.828Z,98730.31
2022-10-23T10:21:06.726Z,98725.78
2022-10-23T10:22:25.774Z,98725.56
2022-10-23T10:23:56.073Z,98718.34
2022-10-23T10:24:58.597Z,98716.06
2022-10-23T10:27:32.426Z,98715.56
2022-10-23T10:28:44.101Z,98722.69
2022-10-23T10:30:03.413Z,98724.75
2022-10-23T10:31:25.025Z,98720.53
2022-10-23T10:32:36.340Z,98725.75
2022-10-23T10:34:05.121Z,98718.69
2022-10-23T10:35:40.920Z,98718.53
2022-10-23T10:37:03.128Z,98711.72
2022-10-23T10:38:24.034Z,98710.59
2022-10-23T10:39:46.149Z,98718.63
2022-10-23T10:41:19.188Z,98715.00
2022-10-23T10:42:56.213Z,98707.94
2022-10-23T10:44:13.366Z,98712.50
2022-10-23T10:45:39.207Z,98711.16
2022-10-23T10:46:48.206Z,98708.94
2022-10-23T10:47:59.452Z,98705.16
2022-10-23T10:49:20.076Z,98710.16
2022-10-23T10:50:28.748Z,98702.31
2022-10-23T10:51:34.131Z,98699.00
2022-10-23T10:52:50.750Z,98701.38
2022-10-23T10:54:06.690Z,98693.69
2022-10-23T10:55:30.372Z,98698.13
2022-10-23T10:56:38.505Z,98695.34
2022-10-23T10:57:52.159Z,98692.56
2022-10-23T10:59:04.969Z,98697.31
2022-10-23T11:00:18.000Z,98689.41
2022-10-23T11:01:29.289Z,98685.28
2022-10-23T11:02:41.726Z,98679.72
2022-10-23T11:03:55.526Z,98679.72
2022-10-23T11:05:06.159Z,98678.06
2022-10-23T11:06:19.305Z,98675.13
2022-10-23T11:07:30.938Z,98668.88
2022-10-23T11:08:49.859Z,98677.34
2022-10-23T11:10:14.675Z,98670.00
2022-10-23T11:11:20.748Z,98665.28
2022-10-23T11:12:28.421Z,98657.56
2022-10-23T11:13:37.913Z,98661.69
2022-10-23T11:14:42.917Z,98666.22
2022-10-23T11:15:45.995Z,98660.72
2022-10-23T11:16:55.768Z,98665.66
2022-10-23T11:18:02.209Z,98662.59
2022-10-23T11:19:11.367Z,98667.66
2022-10-23T11:20:26.043Z,98663.50
2022-10-23T11:21:54.855Z,98661.00
2022-10-23T11:23:03.245Z,98666.78
2022-10-23T11:24:45.407Z,98661.78
2022-10-23T11:26:01.220Z,98660.34
2022-10-23T11:27:21.910Z,98667.06
2022-10-23T11:28:52.553Z,98658.53
2022-10-23T11:30:33.732Z,98663.88
2022-10-23T11:31:46.339Z,98670.38
2022-10-23T11:33:16.213Z,98665.34
2022-10-23T11:34:24.935Z,98663.16
2022-10-23T11:36:04.618Z,98663.88
2022-10-23T11:37:09.270Z,98663.84
2022-10-23T11:38:24.155Z,98656.22
2022-10-23T11:39:29.816Z,98662.84
2022-10-23T11:40:34.322Z,98661.53
2022-10-23T11:41:37.061Z,98669.31
2022-10-23T11:42:40.123Z,98664.47
2022-10-23T11:44:04.182Z,98668.34
2022-10-23T11:45:51.691Z,98663.31
2022-10-23T11:47:03.492Z,98658.16
2022-10-23T11:48:24.683Z,98662.09
2022-10-23T11:49:27.420Z,98661.66
2022-10-23T11:50:44.497Z,98653.03
2022-10-23T11:51:47.161Z,98661.50
2022-10-23T11:53:16.121Z,98661.50
2022-10-23T11:54:24.976Z,98663.97
2022-10-23T11:55:31.034Z,98662.81
2022-10-23T11:56:34.430Z,98653.53
2022-10-23T11:57:37.093Z,98647.88
2022-10-23T11:58:56.725Z,98654.16
2022-10-23T12:00:00.108Z,98658.38
2022-10-23T12:01:16.855Z,98652.81
2022-10-23T12:02:43.219Z,98649.31
2022-10-23T12:03:51.211Z,98653.53
2022-10-23T12:04:55.570Z,98643.84
2022-10-23T12:06:06.059Z,98645.53
2022-10-23T12:07:31.210Z,98640.62
2022-10-23T12:08:39.059Z,98637.03
2022-10-23T12:09:45.231Z,98640.22
2022-10-23T12:10:51.097Z,98645.75
2022-10-23T12:12:09.190Z,98646.28
2022-10-23T12:13:38.355Z,98640.75
2022-10-23T12:14:51.217Z,98633.28
2022-10-23T12:15:58.508Z,98632.22
2022-10-23T12:17:24.705Z,98629.47
2022-10-23T12:18:27.726Z,98631.53
2022-10-23T12:19:48.266Z,98637.81
2022-10-23T12:21:01.614Z,98630.06
2022-10-23T12:22:04.908Z,98629.34
2022-10-23T12:23:36.309Z,98629.59
2022-10-23T12:24:54.560Z,98622.25
2022-10-23T12:26:28.522Z,98619.28
2022-10-23T12:27:40.085Z,98617.25
2022-10-23T12:29:01.361Z,98619.41
2022-10-23T12:30:14.095Z,98621.16
2022-10-23T12:31:37.653Z,98616.41
2022-10-23T12:33:19.679Z,98619.50
2022-10-23T12:35:10.512Z,98618.66
2022-10-23T12:36:29.182Z,98618.94
2022-10-23T12:37:51.679Z,98614.19
2022-10-23T12:38:58.687Z,98610.28
2022-10-23T12:40:02.080Z,98612.97
2022-10-23T12:41:15.612Z,98605.69
2022-10-23T12:42:24.659Z,98602.28
2022-10-23T12:43:31.473Z,98604.66
2022-10-23T12:44:34.194Z,98602.53
2022-10-23T12:45:42.757Z,98608.19
2022-10-23T12:46:54.334Z,98601.91
2022-10-23T12:47:57.499Z,98607.34
2022-10-23T12:49:04.369Z,98591.00
2022-10-23T12:50:20.949Z,98593.28
2022-10-23T12:51:31.842Z,98596.66
2022-10-23T12:52:39.720Z,98592.03
2022-10-23T12:53:48.698Z,98594.09
2022-10-23T12:54:52.293Z,98594.69
2022-10-23T12:56:05.400Z,98597.38
2022-10-23T12:57:30.576Z,98589.69
2022-10-23T12:58:35.695Z,98589.16
2022-10-23T12:59:39.650Z,98582.47
2022-10-23T13:00:52.279Z,98591.94
2022-10-23T13:01:55.990Z,98591.72
2022-10-23T13:03:04.150Z,98599.63
2022-10-23T13:04:26.934Z,98590.47
2022-10-23T13:05:32.354Z,98591.09
2022-10-23T13:06:35.986Z,98577.44
2022-10-23T13:07:44.769Z,98581.75
2022-10-23T13:08:48.529Z,98585.56
2022-10-23T13:09:52.253Z,98583.19
2022-10-23T13:10:55.901Z,98585.03
2022-10-23T13:12:00.907Z,98573.09
2022-10-23T13:13:06.559Z,98570.13
2022-10-23T13:14:13.649Z,98575.56
2022-10-23T13:15:21.433Z,98576.66
2022-10-23T13:16:26.849Z,98575.72
2022-10-23T13:17:42.818Z,98569.25
2022-10-23T13:18:46.518Z,98572.53
2022-10-23T13:19:49.681Z,98575.53
2022-10-23T13:20:52.706Z,98573.56
2022-10-23T13:21:55.865Z,98560.94
2022-10-23T13:23:19.793Z,98572.12
2022-10-23T13:24:26.750Z,98571.81
2022-10-23T13:25:32.795Z,98569.44
2022-10-23T13:26:45.357Z,98565.12
2022-10-23T13:27:48.997Z,98567.50
2022-10-23T13:28:52.968Z,98565.84
2022-10-23T13:31:13.227Z,98561.94
2022-10-23T13:32:28.989Z,98559.16
2022-10-23T13:33:41.426Z,98554.34
2022-10-23T13:35:04.026Z,98550.44